sensor_id;sensor_type;location;lat;lon;timestamp;pressure;altitude;pressure_sealevel;temperature;humidity
74893;BME280;63446;56.272;43.922;2024-02-26T00:01:43;102649.75;;;-2.11;41.21
74893;BME280;63446;56.272;43.922;2024-02-26T00:04:10;102643.03;;;-2.13;41.22
74893;BME280;63446;56.272;43.922;2024-02-26T00:06:39;102648.22;;;-2.13;41.17
74893;BME280;63446;56.272;43.922;2024-02-26T00:09:09;102652.59;;;-2.14;41.12
74893;BME280;63446;56.272;43.922;2024-02-26T00:11:36;102647.41;;;-2.14;41.09
74893;BME280;63446;56.272;43.922;2024-02-26T00:14:02;102648.47;;;-2.16;41.02
74893;BME280;63446;56.272;43.922;2024-02-26T00:16:28;102651.22;;;-2.18;41.04
74893;BME280;63446;56.272;43.922;2024-02-26T00:18:55;102649.56;;;-2.19;41.20
74893;BME280;63446;56.272;43.922;2024-02-26T00:21:21;102639.31;;;-2.21;41.09
74893;BME280;63446;56.272;43.922;2024-02-26T00:23:46;102640.28;;;-2.22;41.09
74893;BME280;63446;56.272;43.922;2024-02-26T00:26:12;102632.63;;;-2.23;41.05
74893;BME280;63446;56.272;43.922;2024-02-26T00:28:38;102629.91;;;-2.22;41.19
74893;BME280;63446;56.272;43.922;2024-02-26T00:31:04;102626.63;;;-2.24;41.19
74893;BME280;63446;56.272;43.922;2024-02-26T00:33:31;102632.75;;;-2.25;41.13
74893;BME280;63446;56.272;43.922;2024-02-26T00:35:56;102625.00;;;-2.25;41.30
74893;BME280;63446;56.272;43.922;2024-02-26T00:38:23;102617.34;;;-2.26;41.24
74893;BME280;63446;56.272;43.922;2024-02-26T00:40:48;102622.53;;;-2.26;41.38
74893;BME280;63446;56.272;43.922;2024-02-26T00:43:14;102619.25;;;-2.28;41.34
74893;BME280;63446;56.272;43.922;2024-02-26T00:45:40;102615.97;;;-2.30;41.38
74893;BME280;63446;56.272;43.922;2024-02-26T00:48:07;102615.97;;;-2.30;41.21
74893;BME280;63446;56.272;43.922;2024-02-26T00:50:36;102613.50;;;-2.32;41.35
74893;BME280;63446;56.272;43.922;2024-02-26T00:53:02;102614.59;;;-2.34;41.28
74893;BME280;63446;56.272;43.922;2024-02-26T00:55:28;102617.19;;;-2.34;41.19
74893;BME280;63446;56.272;43.922;2024-02-26T00:57:54;102616.63;;;-2.38;41.12
74893;BME280;63446;56.272;43.922;2024-02-26T01:00:20;102610.06;;;-2.42;41.26
74893;BME280;63446;56.272;43.922;2024-02-26T01:02:46;102604.16;;;-2.44;41.28
74893;BME280;63446;56.272;43.922;2024-02-26T01:05:13;102606.06;;;-2.46;41.31
74893;BME280;63446;56.272;43.922;2024-02-26T01:07:39;102609.03;;;-2.51;41.38
74893;BME280;63446;56.272;43.922;2024-02-26T01:10:06;102604.09;;;-2.54;41.47
74893;BME280;63446;56.272;43.922;2024-02-26T01:12:33;102595.91;;;-2.59;41.37
74893;BME280;63446;56.272;43.922;2024-02-26T01:15:00;102614.41;;;-2.63;41.32
74893;BME280;63446;56.272;43.922;2024-02-26T01:17:27;102611.97;;;-2.65;41.48
74893;BME280;63446;56.272;43.922;2024-02-26T01:19:53;102616.56;;;-2.68;41.43
74893;BME280;63446;56.272;43.922;2024-02-26T01:22:19;102609.03;;;-2.72;41.50
74893;BME280;63446;56.272;43.922;2024-02-26T01:24:45;102609.16;;;-2.73;41.53
74893;BME280;63446;56.272;43.922;2024-02-26T01:27:12;102605.88;;;-2.75;41.62
74893;BME280;63446;56.272;43.922;2024-02-26T01:29:40;102606.94;;;-2.78;41.54
74893;BME280;63446;56.272;43.922;2024-02-26T01:32:06;102600.94;;;-2.78;41.46
74893;BME280;63446;56.272;43.922;2024-02-26T01:34:32;102604.50;;;-2.79;41.69
74893;BME280;63446;56.272;43.922;2024-02-26T01:36:58;102603.94;;;-2.83;41.65
74893;BME280;63446;56.272;43.922;2024-02-26T01:39:24;102593.72;;;-2.84;41.53
74893;BME280;63446;56.272;43.922;2024-02-26T01:41:50;102599.56;;;-2.82;41.70
74893;BME280;63446;56.272;43.922;2024-02-26T01:44:16;102594.38;;;-2.82;41.46
74893;BME280;63446;56.272;43.922;2024-02-26T01:46:42;102595.34;;;-2.83;41.58
74893;BME280;63446;56.272;43.922;2024-02-26T01:49:08;102589.22;;;-2.82;41.81
74893;BME280;63446;56.272;43.922;2024-02-26T01:51:38;102596.03;;;-2.81;41.86
74893;BME280;63446;56.272;43.922;2024-02-26T01:54:05;102596.84;;;-2.81;41.80
74893;BME280;63446;56.272;43.922;2024-02-26T01:56:34;102593.44;;;-2.81;41.80
74893;BME280;63446;56.272;43.922;2024-02-26T01:59:01;102585.66;;;-2.81;41.79
74893;BME280;63446;56.272;43.922;2024-02-26T02:01:29;102587.34;;;-2.80;41.86
74893;BME280;63446;56.272;43.922;2024-02-26T02:03:58;102588.97;;;-2.79;41.97
74893;BME280;63446;56.272;43.922;2024-02-26T02:06:24;102592.38;;;-2.79;42.01
74893;BME280;63446;56.272;43.922;2024-02-26T02:08:50;102589.06;;;-2.81;42.05
74893;BME280;63446;56.272;43.922;2024-02-26T02:11:17;102584.75;;;-2.80;42.00
74893;BME280;63446;56.272;43.922;2024-02-26T02:13:43;102596.72;;;-2.79;41.96
74893;BME280;63446;56.272;43.922;2024-02-26T02:16:09;102600.13;;;-2.79;42.09
74893;BME280;63446;56.272;43.922;2024-02-26T02:18:35;102595.78;;;-2.78;42.31
74893;BME280;63446;56.272;43.922;2024-02-26T02:21:01;102599.31;;;-2.79;42.15
74893;BME280;63446;56.272;43.922;2024-02-26T02:23:28;102596.50;;;-2.76;42.17
74893;BME280;63446;56.272;43.922;2024-02-26T02:25:56;102597.31;;;-2.76;42.13
74893;BME280;63446;56.272;43.922;2024-02-26T02:28:25;102592.00;;;-2.74;42.18
74893;BME280;63446;56.272;43.922;2024-02-26T02:30:52;102579.75;;;-2.72;42.36
74893;BME280;63446;56.272;43.922;2024-02-26T02:33:19;102592.44;;;-2.69;42.27
74893;BME280;63446;56.272;43.922;2024-02-26T02:35:45;102587.94;;;-2.67;42.25
74893;BME280;63446;56.272;43.922;2024-02-26T02:38:11;102587.94;;;-2.67;42.25
74893;BME280;63446;56.272;43.922;2024-02-26T02:40:37;102590.53;;;-2.67;42.25
74893;BME280;63446;56.272;43.922;2024-02-26T02:43:04;102585.22;;;-2.65;42.29
74893;BME280;63446;56.272;43.922;2024-02-26T02:45:30;102598.16;;;-2.65;42.30
74893;BME280;63446;56.272;43.922;2024-02-26T02:47:56;102587.00;;;-2.66;42.33
74893;BME280;63446;56.272;43.922;2024-02-26T02:50:22;102587.81;;;-2.65;42.30
74893;BME280;63446;56.272;43.922;2024-02-26T02:52:47;102591.25;;;-2.65;42.40
74893;BME280;63446;56.272;43.922;2024-02-26T02:55:16;102586.06;;;-2.65;42.41
74893;BME280;63446;56.272;43.922;2024-02-26T02:57:42;102579.94;;;-2.64;42.38
74893;BME280;63446;56.272;43.922;2024-02-26T03:00:09;102576.53;;;-2.64;42.43
74893;BME280;63446;56.272;43.922;2024-02-26T03:02:36;102573.00;;;-2.63;42.40
74893;BME280;63446;56.272;43.922;2024-02-26T03:05:06;102578.03;;;-2.62;42.46
74893;BME280;63446;56.272;43.922;2024-02-26T03:07:32;102578.88;;;-2.61;42.41
74893;BME280;63446;56.272;43.922;2024-02-26T03:09:58;102583.09;;;-2.60;42.41
74893;BME280;63446;56.272;43.922;2024-02-26T03:12:23;102575.19;;;-2.59;42.49
74893;BME280;63446;56.272;43.922;2024-02-26T03:14:49;102579.41;;;-2.58;42.63
74893;BME280;63446;56.272;43.922;2024-02-26T03:17:15;102579.31;;;-2.56;42.57
74893;BME280;63446;56.272;43.922;2024-02-26T03:19:41;102585.97;;;-2.54;42.54
74893;BME280;63446;56.272;43.922;2024-02-26T03:22:09;102574.69;;;-2.53;42.63
74893;BME280;63446;56.272;43.922;2024-02-26T03:24:34;102576.19;;;-2.50;42.46
74893;BME280;63446;56.272;43.922;2024-02-26T03:27:00;102581.13;;;-2.47;42.49
74893;BME280;63446;56.272;43.922;2024-02-26T03:29:26;102582.63;;;-2.44;42.50
74893;BME280;63446;56.272;43.922;2024-02-26T03:31:51;102580.72;;;-2.42;42.56
74893;BME280;63446;56.272;43.922;2024-02-26T03:34:17;102581.19;;;-2.37;42.58
74893;BME280;63446;56.272;43.922;2024-02-26T03:36:45;102581.84;;;-2.35;42.59
74893;BME280;63446;56.272;43.922;2024-02-26T03:39:11;102587.59;;;-2.32;42.55
74893;BME280;63446;56.272;43.922;2024-02-26T03:41:38;102581.59;;;-2.32;42.58
74893;BME280;63446;56.272;43.922;2024-02-26T03:44:04;102579.72;;;-2.30;42.55
74893;BME280;63446;56.272;43.922;2024-02-26T03:46:30;102588.31;;;-2.30;42.65
74893;BME280;63446;56.272;43.922;2024-02-26T03:48:56;102572.31;;;-2.35;42.59
74893;BME280;63446;56.272;43.922;2024-02-26T03:51:22;102580.41;;;-2.28;42.52
74893;BME280;63446;56.272;43.922;2024-02-26T03:53:48;102584.63;;;-2.27;42.40
74893;BME280;63446;56.272;43.922;2024-02-26T03:56:14;102584.50;;;-2.26;42.51
74893;BME280;63446;56.272;43.922;2024-02-26T03:58:40;102576.47;;;-2.23;42.54
74893;BME280;63446;56.272;43.922;2024-02-26T04:01:09;102584.25;;;-2.23;42.40
74893;BME280;63446;56.272;43.922;2024-02-26T04:03:36;102583.97;;;-2.19;42.39
74893;BME280;63446;56.272;43.922;2024-02-26T04:06:02;102588.06;;;-2.17;42.41
74893;BME280;63446;56.272;43.922;2024-02-26T04:08:28;102586.88;;;-2.13;42.56
74893;BME280;63446;56.272;43.922;2024-02-26T04:10:55;102586.59;;;-2.10;42.42
74893;BME280;63446;56.272;43.922;2024-02-26T04:13:21;102588.13;;;-2.07;42.45
74893;BME280;63446;56.272;43.922;2024-02-26T04:15:47;102595.63;;;-2.04;42.37
74893;BME280;63446;56.272;43.922;2024-02-26T04:18:13;102595.38;;;-2.01;42.39
74893;BME280;63446;56.272;43.922;2024-02-26T04:20:39;102594.97;;;-1.97;42.48
74893;BME280;63446;56.272;43.922;2024-02-26T04:23:08;102586.69;;;-1.90;42.49
74893;BME280;63446;56.272;43.922;2024-02-26T04:25:34;102588.75;;;-1.84;42.29
74893;BME280;63446;56.272;43.922;2024-02-26T04:27:59;102587.53;;;-1.80;42.18
74893;BME280;63446;56.272;43.922;2024-02-26T04:30:25;102583.72;;;-1.76;42.21
74893;BME280;63446;56.272;43.922;2024-02-26T04:32:52;102590.94;;;-1.70;42.29
74893;BME280;63446;56.272;43.922;2024-02-26T04:35:18;102592.22;;;-1.64;42.20
74893;BME280;63446;56.272;43.922;2024-02-26T04:37:44;102595.34;;;-1.61;41.97
74893;BME280;63446;56.272;43.922;2024-02-26T04:40:10;102594.81;;;-1.55;41.94
74893;BME280;63446;56.272;43.922;2024-02-26T04:42:36;102592.66;;;-1.50;41.85
74893;BME280;63446;56.272;43.922;2024-02-26T04:45:02;102599.88;;;-1.43;41.70
74893;BME280;63446;56.272;43.922;2024-02-26T04:47:29;102605.22;;;-1.35;41.72
74893;BME280;63446;56.272;43.922;2024-02-26T04:49:55;102599.34;;;-1.28;41.55
74893;BME280;63446;56.272;43.922;2024-02-26T04:52:22;102596.06;;;-1.20;41.45
74893;BME280;63446;56.272;43.922;2024-02-26T04:54:49;102597.88;;;-1.11;41.43
74893;BME280;63446;56.272;43.922;2024-02-26T04:57:15;102601.97;;;-0.99;41.43
74893;BME280;63446;56.272;43.922;2024-02-26T04:59:44;102604.53;;;-0.89;41.10
74893;BME280;63446;56.272;43.922;2024-02-26T05:02:12;102601.94;;;-0.79;40.96
74893;BME280;63446;56.272;43.922;2024-02-26T05:04:37;102602.75;;;-0.69;40.97
74893;BME280;63446;56.272;43.922;2024-02-26T05:07:03;102602.56;;;-0.58;40.88
74893;BME280;63446;56.272;43.922;2024-02-26T05:09:30;102593.53;;;-0.44;40.76
74893;BME280;63446;56.272;43.922;2024-02-26T05:11:56;102600.59;;;-0.27;40.52
74893;BME280;63446;56.272;43.922;2024-02-26T05:14:21;102604.59;;;-0.05;40.37
74893;BME280;63446;56.272;43.922;2024-02-26T05:16:47;102606.72;;;0.10;40.16
74893;BME280;63446;56.272;43.922;2024-02-26T05:19:13;102604.75;;;0.21;39.90
74893;BME280;63446;56.272;43.922;2024-02-26T05:21:39;102603.88;;;0.31;39.73
74893;BME280;63446;56.272;43.922;2024-02-26T05:24:10;102608.06;;;0.41;39.72
74893;BME280;63446;56.272;43.922;2024-02-26T05:26:36;102606.50;;;0.48;39.57
74893;BME280;63446;56.272;43.922;2024-02-26T05:29:03;102594.03;;;0.52;39.30
74893;BME280;63446;56.272;43.922;2024-02-26T05:31:29;102601.63;;;0.63;39.19
74893;BME280;63446;56.272;43.922;2024-02-26T05:33:54;102602.81;;;0.69;39.04
74893;BME280;63446;56.272;43.922;2024-02-26T05:36:21;102608.41;;;0.74;38.94
74893;BME280;63446;56.272;43.922;2024-02-26T05:38:49;102606.16;;;0.79;38.88
74893;BME280;63446;56.272;43.922;2024-02-26T05:41:16;102597.78;;;0.85;38.85
74893;BME280;63446;56.272;43.922;2024-02-26T05:43:45;102612.13;;;0.89;38.95
74893;BME280;63446;56.272;43.922;2024-02-26T05:46:11;102594.41;;;0.93;38.64
74893;BME280;63446;56.272;43.922;2024-02-26T05:48:38;102604.50;;;0.96;38.49
74893;BME280;63446;56.272;43.922;2024-02-26T05:51:05;102607.34;;;1.03;38.33
74893;BME280;63446;56.272;43.922;2024-02-26T05:53:31;102607.56;;;1.09;38.19
74893;BME280;63446;56.272;43.922;2024-02-26T05:55:57;102610.22;;;1.17;38.39
74893;BME280;63446;56.272;43.922;2024-02-26T05:58:23;102605.06;;;1.26;38.16
74893;BME280;63446;56.272;43.922;2024-02-26T06:00:49;102609.69;;;1.32;38.03
74893;BME280;63446;56.272;43.922;2024-02-26T06:03:15;102608.75;;;1.41;37.83
74893;BME280;63446;56.272;43.922;2024-02-26T06:05:42;102618.94;;;1.52;37.75
74893;BME280;63446;56.272;43.922;2024-02-26T06:08:08;102601.41;;;1.62;37.58
74893;BME280;63446;56.272;43.922;2024-02-26T06:10:34;102602.28;;;1.71;37.45
74893;BME280;63446;56.272;43.922;2024-02-26T06:13:01;102595.59;;;1.77;37.40
74893;BME280;63446;56.272;43.922;2024-02-26T06:15:26;102603.81;;;1.82;37.25
74893;BME280;63446;56.272;43.922;2024-02-26T06:17:53;102600.03;;;1.84;37.17
74893;BME280;63446;56.272;43.922;2024-02-26T06:20:19;102596.31;;;1.87;37.09
74893;BME280;63446;56.272;43.922;2024-02-26T06:22:45;102601.88;;;1.92;37.18
74893;BME280;63446;56.272;43.922;2024-02-26T06:25:11;102601.72;;;1.93;37.11
74893;BME280;63446;56.272;43.922;2024-02-26T06:27:37;102605.97;;;1.94;36.98
74893;BME280;63446;56.272;43.922;2024-02-26T06:30:03;102605.84;;;1.96;37.02
74893;BME280;63446;56.272;43.922;2024-02-26T06:32:30;102607.16;;;2.00;37.04
74893;BME280;63446;56.272;43.922;2024-02-26T06:34:57;102600.94;;;2.01;36.88
74893;BME280;63446;56.272;43.922;2024-02-26T06:37:23;102595.56;;;2.03;36.80
74893;BME280;63446;56.272;43.922;2024-02-26T06:39:48;102593.63;;;2.05;36.78
74893;BME280;63446;56.272;43.922;2024-02-26T06:42:14;102595.75;;;2.09;36.63
74893;BME280;63446;56.272;43.922;2024-02-26T06:44:40;102596.41;;;2.11;36.51
74893;BME280;63446;56.272;43.922;2024-02-26T06:47:05;102588.44;;;2.13;36.44
74893;BME280;63446;56.272;43.922;2024-02-26T06:49:33;102588.13;;;2.16;36.41
74893;BME280;63446;56.272;43.922;2024-02-26T06:51:58;102591.06;;;2.21;36.33
74893;BME280;63446;56.272;43.922;2024-02-26T06:54:24;102594.69;;;2.28;36.30
74893;BME280;63446;56.272;43.922;2024-02-26T06:56:51;102594.53;;;2.38;36.21
74893;BME280;63446;56.272;43.922;2024-02-26T06:59:16;102592.13;;;2.44;36.11
74893;BME280;63446;56.272;43.922;2024-02-26T07:01:43;102603.22;;;2.55;36.07
74893;BME280;63446;56.272;43.922;2024-02-26T07:04:10;102592.97;;;2.61;36.02
74893;BME280;63446;56.272;43.922;2024-02-26T07:06:36;102597.22;;;2.71;35.99
74893;BME280;63446;56.272;43.922;2024-02-26T07:09:02;102596.72;;;2.75;35.97
74893;BME280;63446;56.272;43.922;2024-02-26T07:11:29;102591.00;;;2.80;35.80
74893;BME280;63446;56.272;43.922;2024-02-26T07:13:54;102583.84;;;2.82;35.74
74893;BME280;63446;56.272;43.922;2024-02-26T07:16:21;102593.13;;;2.84;35.69
74893;BME280;63446;56.272;43.922;2024-02-26T07:18:47;102594.47;;;2.88;35.78
74893;BME280;63446;56.272;43.922;2024-02-26T07:21:13;102596.25;;;2.88;35.69
74893;BME280;63446;56.272;43.922;2024-02-26T07:23:38;102584.16;;;2.87;35.65
74893;BME280;63446;56.272;43.922;2024-02-26T07:26:04;102592.31;;;2.92;35.71
74893;BME280;63446;56.272;43.922;2024-02-26T07:28:31;102591.69;;;2.98;35.72
74893;BME280;63446;56.272;43.922;2024-02-26T07:30:57;102588.25;;;3.06;35.62
74893;BME280;63446;56.272;43.922;2024-02-26T07:33:22;102590.72;;;3.15;35.52
74893;BME280;63446;56.272;43.922;2024-02-26T07:35:49;102594.75;;;3.26;35.41
74893;BME280;63446;56.272;43.922;2024-02-26T07:38:14;102602.41;;;3.44;35.38
74893;BME280;63446;56.272;43.922;2024-02-26T07:40:40;102587.50;;;3.61;35.14
74893;BME280;63446;56.272;43.922;2024-02-26T07:43:07;102598.56;;;3.79;35.05
74893;BME280;63446;56.272;43.922;2024-02-26T07:45:32;102600.50;;;3.94;34.99
74893;BME280;63446;56.272;43.922;2024-02-26T07:47:58;102598.31;;;4.05;34.92
74893;BME280;63446;56.272;43.922;2024-02-26T07:50:25;102592.84;;;4.15;34.83
74893;BME280;63446;56.272;43.922;2024-02-26T07:52:50;102595.78;;;4.20;34.84
74893;BME280;63446;56.272;43.922;2024-02-26T07:55:19;102588.41;;;4.24;34.78
74893;BME280;63446;56.272;43.922;2024-02-26T07:57:45;102600.50;;;4.25;34.89
74893;BME280;63446;56.272;43.922;2024-02-26T08:00:11;102599.84;;;4.23;34.84
74893;BME280;63446;56.272;43.922;2024-02-26T08:02:37;102587.28;;;4.18;34.91
74893;BME280;63446;56.272;43.922;2024-02-26T08:05:03;102591.19;;;4.22;34.95
74893;BME280;63446;56.272;43.922;2024-02-26T08:07:30;102587.94;;;4.20;35.05
74893;BME280;63446;56.272;43.922;2024-02-26T08:09:56;102589.91;;;4.18;35.14
74893;BME280;63446;56.272;43.922;2024-02-26T08:12:22;102590.38;;;4.22;35.24
74893;BME280;63446;56.272;43.922;2024-02-26T08:14:48;102595.94;;;4.27;35.01
74893;BME280;63446;56.272;43.922;2024-02-26T08:17:14;102583.28;;;4.30;35.11
74893;BME280;63446;56.272;43.922;2024-02-26T08:19:39;102588.84;;;4.35;35.03
74893;BME280;63446;56.272;43.922;2024-02-26T08:22:05;102591.94;;;4.39;35.10
74893;BME280;63446;56.272;43.922;2024-02-26T08:24:31;102577.19;;;4.38;35.04
74893;BME280;63446;56.272;43.922;2024-02-26T08:26:57;102578.66;;;4.40;35.25
74893;BME280;63446;56.272;43.922;2024-02-26T08:29:23;102576.97;;;4.48;35.16
74893;BME280;63446;56.272;43.922;2024-02-26T08:31:49;102573.69;;;4.54;35.09
74893;BME280;63446;56.272;43.922;2024-02-26T08:34:15;102580.66;;;4.61;34.88
74893;BME280;63446;56.272;43.922;2024-02-26T08:36:41;102570.28;;;4.68;34.82
74893;BME280;63446;56.272;43.922;2024-02-26T08:39:08;102565.81;;;4.77;34.88
74893;BME280;63446;56.272;43.922;2024-02-26T08:41:34;102561.47;;;4.84;34.82
74893;BME280;63446;56.272;43.922;2024-02-26T08:44:00;102568.09;;;4.95;34.83
74893;BME280;63446;56.272;43.922;2024-02-26T08:46:26;102565.41;;;5.03;34.79
74893;BME280;63446;56.272;43.922;2024-02-26T08:48:52;102570.78;;;5.09;34.77
74893;BME280;63446;56.272;43.922;2024-02-26T08:51:18;102568.78;;;5.11;34.56
74893;BME280;63446;56.272;43.922;2024-02-26T08:53:43;102556.03;;;5.08;34.35
74893;BME280;63446;56.272;43.922;2024-02-26T08:56:10;102560.97;;;5.03;34.40
74893;BME280;63446;56.272;43.922;2024-02-26T08:58:45;102560.38;;;5.01;34.45
74893;BME280;63446;56.272;43.922;2024-02-26T09:01:14;102567.22;;;5.02;34.53
74893;BME280;63446;56.272;43.922;2024-02-26T09:03:40;102561.81;;;5.04;34.41
74893;BME280;63446;56.272;43.922;2024-02-26T09:06:06;102556.31;;;5.13;34.46
74893;BME280;63446;56.272;43.922;2024-02-26T09:08:34;102564.19;;;5.28;34.34
74893;BME280;63446;56.272;43.922;2024-02-26T09:11:02;102550.47;;;5.41;34.18
74893;BME280;63446;56.272;43.922;2024-02-26T09:13:29;102542.94;;;5.53;34.16
74893;BME280;63446;56.272;43.922;2024-02-26T09:15:55;102547.13;;;5.62;33.87
74893;BME280;63446;56.272;43.922;2024-02-26T09:18:21;102550.81;;;5.68;34.01
74893;BME280;63446;56.272;43.922;2024-02-26T09:20:47;102543.75;;;5.68;33.75
74893;BME280;63446;56.272;43.922;2024-02-26T09:23:13;102549.00;;;5.68;33.77
74893;BME280;63446;56.272;43.922;2024-02-26T09:25:41;102550.00;;;5.67;33.66
74893;BME280;63446;56.272;43.922;2024-02-26T09:28:07;102546.94;;;5.63;33.70
74893;BME280;63446;56.272;43.922;2024-02-26T09:30:32;102553.63;;;5.66;33.75
74893;BME280;63446;56.272;43.922;2024-02-26T09:32:58;102549.66;;;5.70;33.79
74893;BME280;63446;56.272;43.922;2024-02-26T09:35:24;102546.13;;;5.78;33.67
74893;BME280;63446;56.272;43.922;2024-02-26T09:37:50;102540.31;;;5.82;33.63
74893;BME280;63446;56.272;43.922;2024-02-26T09:40:16;102540.75;;;5.86;33.53
74893;BME280;63446;56.272;43.922;2024-02-26T09:42:45;102536.97;;;5.88;33.45
74893;BME280;63446;56.272;43.922;2024-02-26T09:45:18;102539.59;;;5.88;33.34
74893;BME280;63446;56.272;43.922;2024-02-26T09:47:47;102540.41;;;5.89;33.19
74893;BME280;63446;56.272;43.922;2024-02-26T09:50:14;102539.75;;;5.87;33.07
74893;BME280;63446;56.272;43.922;2024-02-26T09:52:44;102540.13;;;5.84;33.13
74893;BME280;63446;56.272;43.922;2024-02-26T09:55:12;102542.75;;;5.84;33.13
74893;BME280;63446;56.272;43.922;2024-02-26T09:57:38;102542.56;;;5.85;32.82
74893;BME280;63446;56.272;43.922;2024-02-26T10:00:10;102541.56;;;5.86;32.82
74893;BME280;63446;56.272;43.922;2024-02-26T10:02:40;102530.25;;;5.86;32.79
74893;BME280;63446;56.272;43.922;2024-02-26T10:05:07;102524.56;;;5.82;32.75
74893;BME280;63446;56.272;43.922;2024-02-26T10:07:36;102516.44;;;5.77;32.97
74893;BME280;63446;56.272;43.922;2024-02-26T10:10:04;102510.63;;;5.82;32.93
74893;BME280;63446;56.272;43.922;2024-02-26T10:12:50;102520.78;;;5.85;32.93
74893;BME280;63446;56.272;43.922;2024-02-26T10:15:16;102512.91;;;5.85;32.87
74893;BME280;63446;56.272;43.922;2024-02-26T10:17:42;102520.94;;;5.83;32.59
74893;BME280;63446;56.272;43.922;2024-02-26T10:20:18;102515.88;;;5.82;32.59
74893;BME280;63446;56.272;43.922;2024-02-26T10:22:47;102511.81;;;5.79;32.46
74893;BME280;63446;56.272;43.922;2024-02-26T10:25:12;102514.44;;;5.79;32.35
74893;BME280;63446;56.272;43.922;2024-02-26T10:27:42;102507.13;;;5.75;32.24
74893;BME280;63446;56.272;43.922;2024-02-26T10:30:21;102517.53;;;5.68;32.29
74893;BME280;63446;56.272;43.922;2024-02-26T10:32:49;102509.19;;;5.64;32.38
74893;BME280;63446;56.272;43.922;2024-02-26T10:35:18;102509.75;;;5.60;32.39
74893;BME280;63446;56.272;43.922;2024-02-26T10:37:44;102509.31;;;5.56;32.54
74893;BME280;63446;56.272;43.922;2024-02-26T10:40:14;102508.84;;;5.53;32.42
74893;BME280;63446;56.272;43.922;2024-02-26T10:42:41;102501.72;;;5.47;32.43
74893;BME280;63446;56.272;43.922;2024-02-26T10:45:09;102515.41;;;5.42;32.51
74893;BME280;63446;56.272;43.922;2024-02-26T10:47:36;102505.16;;;5.32;32.37
74893;BME280;63446;56.272;43.922;2024-02-26T10:50:05;102510.84;;;5.21;32.39
74893;BME280;63446;56.272;43.922;2024-02-26T10:52:33;102501.63;;;5.10;32.32
74893;BME280;63446;56.272;43.922;2024-02-26T10:55:03;102497.47;;;5.01;32.53
74893;BME280;63446;56.272;43.922;2024-02-26T10:57:40;102501.97;;;4.93;32.56
74893;BME280;63446;56.272;43.922;2024-02-26T11:00:14;102504.31;;;4.87;32.53
74893;BME280;63446;56.272;43.922;2024-02-26T11:02:41;102501.75;;;4.79;32.50
74893;BME280;63446;56.272;43.922;2024-02-26T11:05:07;102504.47;;;4.71;32.61
74893;BME280;63446;56.272;43.922;2024-02-26T11:07:35;102496.03;;;4.61;32.61
74893;BME280;63446;56.272;43.922;2024-02-26T11:10:07;102487.41;;;4.52;32.69
74893;BME280;63446;56.272;43.922;2024-02-26T11:12:35;102496.00;;;4.46;32.92
74893;BME280;63446;56.272;43.922;2024-02-26T11:15:03;102487.03;;;4.40;32.91
74893;BME280;63446;56.272;43.922;2024-02-26T11:17:31;102488.19;;;4.38;32.89
74893;BME280;63446;56.272;43.922;2024-02-26T11:19:58;102481.78;;;4.40;32.79
74893;BME280;63446;56.272;43.922;2024-02-26T11:22:25;102474.94;;;4.39;32.67
74893;BME280;63446;56.272;43.922;2024-02-26T11:24:53;102480.03;;;4.56;32.69
74893;BME280;63446;56.272;43.922;2024-02-26T11:27:42;102470.13;;;4.66;32.64
74893;BME280;63446;56.272;43.922;2024-02-26T11:30:10;102473.94;;;4.78;32.52
74893;BME280;63446;56.272;43.922;2024-02-26T11:32:37;102460.75;;;4.86;32.23
74893;BME280;63446;56.272;43.922;2024-02-26T11:35:05;102456.91;;;4.97;32.10
74893;BME280;63446;56.272;43.922;2024-02-26T11:37:32;102468.09;;;5.06;32.06
74893;BME280;63446;56.272;43.922;2024-02-26T11:40:01;102468.09;;;5.06;32.01
74893;BME280;63446;56.272;43.922;2024-02-26T11:42:30;102469.25;;;5.03;32.14
74893;BME280;63446;56.272;43.922;2024-02-26T11:44:56;102462.31;;;4.96;32.16
74893;BME280;63446;56.272;43.922;2024-02-26T11:47:26;102461.56;;;4.87;32.31
74893;BME280;63446;56.272;43.922;2024-02-26T11:49:52;102477.56;;;4.77;32.36
74893;BME280;63446;56.272;43.922;2024-02-26T11:52:18;102463.25;;;4.65;32.40
74893;BME280;63446;56.272;43.922;2024-02-26T11:54:52;102469.91;;;4.53;32.55
74893;BME280;63446;56.272;43.922;2024-02-26T11:59:48;102455.50;;;4.34;32.78
74893;BME280;63446;56.272;43.922;2024-02-26T12:05:11;102459.63;;;4.28;33.02
74893;BME280;63446;56.272;43.922;2024-02-26T12:07:49;102458.09;;;4.34;32.92
74893;BME280;63446;56.272;43.922;2024-02-26T12:15:24;102445.47;;;4.37;32.67
74893;BME280;63446;56.272;43.922;2024-02-26T12:17:52;102453.34;;;4.37;32.71
74893;BME280;63446;56.272;43.922;2024-02-26T12:20:18;102446.03;;;4.33;32.66
74893;BME280;63446;56.272;43.922;2024-02-26T12:22:46;102448.00;;;4.31;32.66
74893;BME280;63446;56.272;43.922;2024-02-26T12:25:15;102446.56;;;4.28;32.61
74893;BME280;63446;56.272;43.922;2024-02-26T12:27:41;102448.16;;;4.29;32.81
74893;BME280;63446;56.272;43.922;2024-02-26T12:30:08;102445.75;;;4.28;32.72
74893;BME280;63446;56.272;43.922;2024-02-26T12:32:35;102444.13;;;4.27;32.72
74893;BME280;63446;56.272;43.922;2024-02-26T12:35:01;102448.69;;;4.25;32.83
74893;BME280;63446;56.272;43.922;2024-02-26T12:37:28;102451.66;;;4.22;32.85
74893;BME280;63446;56.272;43.922;2024-02-26T12:39:54;102453.47;;;4.21;32.92
74893;BME280;63446;56.272;43.922;2024-02-26T12:42:21;102444.81;;;4.21;33.07
74893;BME280;63446;56.272;43.922;2024-02-26T12:44:52;102458.09;;;4.19;33.20
74893;BME280;63446;56.272;43.922;2024-02-26T12:47:18;102458.25;;;4.18;33.30
74893;BME280;63446;56.272;43.922;2024-02-26T12:49:47;102444.41;;;4.09;33.26
74893;BME280;63446;56.272;43.922;2024-02-26T12:52:14;102451.59;;;4.07;33.47
74893;BME280;63446;56.272;43.922;2024-02-26T12:54:42;102444.81;;;3.98;33.44